sensor_id;sensor_type;location;lat;lon;timestamp;P1;durP1;ratioP1;P2;durP2;ratioP2
3841;SDS011;1936;47.074;15.336;2023-03-02T00:00:37;29.60;;;13.95;;
3841;SDS011;1936;47.074;15.336;2023-03-02T00:02:43;20.35;;;15.13;;
3841;SDS011;1936;47.074;15.336;2023-03-02T00:04:47;18.83;;;13.32;;
3841;SDS011;1936;47.074;15.336;2023-03-02T00:06:54;15.60;;;12.20;;
3841;SDS011;1936;47.074;15.336;2023-03-02T00:08:59;19.00;;;14.05;;
3841;SDS011;1936;47.074;15.336;2023-03-02T00:11:05;22.33;;;12.77;;
3841;SDS011;1936;47.074;15.336;2023-03-02T00:13:11;18.55;;;12.93;;
3841;SDS011;1936;47.074;15.336;2023-03-02T00:15:16;15.48;;;11.77;;
3841;SDS011;1936;47.074;15.336;2023-03-02T00:17:19;17.13;;;13.48;;
3841;SDS011;1936;47.074;15.336;2023-03-02T00:19:29;19.10;;;14.23;;
3841;SDS011;1936;47.074;15.336;2023-03-02T00:21:33;18.98;;;12.10;;
3841;SDS011;1936;47.074;15.336;2023-03-02T00:23:36;14.82;;;12.05;;
3841;SDS011;1936;47.074;15.336;2023-03-02T00:25:40;16.13;;;10.60;;
3841;SDS011;1936;47.074;15.336;2023-03-02T00:27:44;16.65;;;11.73;;
3841;SDS011;1936;47.074;15.336;2023-03-02T00:29:47;24.52;;;12.57;;
3841;SDS011;1936;47.074;15.336;2023-03-02T00:31:50;17.23;;;11.98;;
3841;SDS011;1936;47.074;15.336;2023-03-02T00:33:54;14.93;;;11.65;;
3841;SDS011;1936;47.074;15.336;2023-03-02T00:35:59;17.25;;;12.38;;
3841;SDS011;1936;47.074;15.336;2023-03-02T00:38:03;16.92;;;11.60;;
3841;SDS011;1936;47.074;15.336;2023-03-02T00:40:08;16.08;;;11.48;;
3841;SDS011;1936;47.074;15.336;2023-03-02T00:42:12;16.65;;;12.23;;
3841;SDS011;1936;47.074;15.336;2023-03-02T00:44:15;14.57;;;11.98;;
3841;SDS011;1936;47.074;15.336;2023-03-02T00:46:19;21.50;;;13.80;;
3841;SDS011;1936;47.074;15.336;2023-03-02T00:48:23;16.27;;;12.05;;
3841;SDS011;1936;47.074;15.336;2023-03-02T00:50:27;17.75;;;12.13;;
3841;SDS011;1936;47.074;15.336;2023-03-02T00:52:32;17.48;;;13.07;;
3841;SDS011;1936;47.074;15.336;2023-03-02T00:54:35;18.58;;;12.45;;
3841;SDS011;1936;47.074;15.336;2023-03-02T00:56:39;20.25;;;13.48;;
3841;SDS011;1936;47.074;15.336;2023-03-02T00:58:42;18.40;;;13.18;;
3841;SDS011;1936;47.074;15.336;2023-03-02T01:00:46;21.05;;;13.52;;
3841;SDS011;1936;47.074;15.336;2023-03-02T01:02:49;17.45;;;14.40;;
3841;SDS011;1936;47.074;15.336;2023-03-02T01:04:53;19.85;;;13.18;;
3841;SDS011;1936;47.074;15.336;2023-03-02T01:06:57;15.63;;;12.13;;
3841;SDS011;1936;47.074;15.336;2023-03-02T01:09:02;17.98;;;13.18;;
3841;SDS011;1936;47.074;15.336;2023-03-02T01:11:11;20.55;;;13.00;;
3841;SDS011;1936;47.074;15.336;2023-03-02T01:13:15;17.23;;;12.63;;
3841;SDS011;1936;47.074;15.336;2023-03-02T01:15:18;17.90;;;13.55;;
3841;SDS011;1936;47.074;15.336;2023-03-02T01:17:22;17.83;;;12.75;;
3841;SDS011;1936;47.074;15.336;2023-03-02T01:19:25;16.75;;;12.60;;
3841;SDS011;1936;47.074;15.336;2023-03-02T01:21:29;16.98;;;12.13;;
3841;SDS011;1936;47.074;15.336;2023-03-02T01:23:32;19.67;;;13.07;;
3841;SDS011;1936;47.074;15.336;2023-03-02T01:25:37;17.83;;;13.02;;
3841;SDS011;1936;47.074;15.336;2023-03-02T01:27:40;17.13;;;12.98;;
3841;SDS011;1936;47.074;15.336;2023-03-02T01:29:44;23.23;;;14.90;;
3841;SDS011;1936;47.074;15.336;2023-03-02T01:31:47;18.10;;;13.27;;
3841;SDS011;1936;47.074;15.336;2023-03-02T01:33:51;21.05;;;13.70;;
3841;SDS011;1936;47.074;15.336;2023-03-02T01:35:55;22.55;;;13.20;;
3841;SDS011;1936;47.074;15.336;2023-03-02T01:37:58;16.95;;;12.25;;
3841;SDS011;1936;47.074;15.336;2023-03-02T01:40:02;14.55;;;11.98;;
3841;SDS011;1936;47.074;15.336;2023-03-02T01:42:08;16.42;;;13.15;;
3841;SDS011;1936;47.074;15.336;2023-03-02T01:46:43;21.98;;;13.38;;
3841;SDS011;1936;47.074;15.336;2023-03-02T01:48:47;15.30;;;11.50;;
3841;SDS011;1936;47.074;15.336;2023-03-02T01:50:54;16.58;;;11.82;;
3841;SDS011;1936;47.074;15.336;2023-03-02T01:52:59;16.48;;;12.90;;
3841;SDS011;1936;47.074;15.336;2023-03-02T01:55:05;13.15;;;11.48;;
3841;SDS011;1936;47.074;15.336;2023-03-02T01:57:12;17.48;;;12.02;;
3841;SDS011;1936;47.074;15.336;2023-03-02T01:59:16;18.25;;;13.15;;
3841;SDS011;1936;47.074;15.336;2023-03-02T02:01:22;17.83;;;13.77;;
3841;SDS011;1936;47.074;15.336;2023-03-02T02:03:26;18.40;;;12.90;;
3841;SDS011;1936;47.074;15.336;2023-03-02T02:05:32;17.98;;;12.48;;
3841;SDS011;1936;47.074;15.336;2023-03-02T02:07:36;16.60;;;13.32;;
3841;SDS011;1936;47.074;15.336;2023-03-02T02:09:42;18.33;;;13.05;;
3841;SDS011;1936;47.074;15.336;2023-03-02T02:11:48;15.52;;;12.73;;
3841;SDS011;1936;47.074;15.336;2023-03-02T02:13:54;18.58;;;13.75;;
3841;SDS011;1936;47.074;15.336;2023-03-02T02:15:59;18.83;;;12.95;;
3841;SDS011;1936;47.074;15.336;2023-03-02T02:18:03;20.17;;;13.38;;
3841;SDS011;1936;47.074;15.336;2023-03-02T02:20:11;17.23;;;13.43;;
3841;SDS011;1936;47.074;15.336;2023-03-02T02:22:24;15.65;;;12.43;;
3841;SDS011;1936;47.074;15.336;2023-03-02T02:24:37;17.48;;;13.40;;
3841;SDS011;1936;47.074;15.336;2023-03-02T02:26:46;18.20;;;13.77;;
3841;SDS011;1936;47.074;15.336;2023-03-02T02:28:53;19.90;;;13.50;;
3841;SDS011;1936;47.074;15.336;2023-03-02T02:31:03;17.50;;;13.20;;
3841;SDS011;1936;47.074;15.336;2023-03-02T02:33:12;15.30;;;12.18;;
3841;SDS011;1936;47.074;15.336;2023-03-02T02:35:19;17.45;;;12.88;;
3841;SDS011;1936;47.074;15.336;2023-03-02T02:37:28;18.23;;;12.20;;
3841;SDS011;1936;47.074;15.336;2023-03-02T02:39:36;15.20;;;12.35;;
3841;SDS011;1936;47.074;15.336;2023-03-02T02:41:43;18.00;;;13.98;;
3841;SDS011;1936;47.074;15.336;2023-03-02T02:43:50;17.13;;;12.77;;
3841;SDS011;1936;47.074;15.336;2023-03-02T02:45:54;17.20;;;13.10;;
3841;SDS011;1936;47.074;15.336;2023-03-02T02:47:59;17.15;;;13.25;;
3841;SDS011;1936;47.074;15.336;2023-03-02T02:50:03;16.17;;;12.40;;
3841;SDS011;1936;47.074;15.336;2023-03-02T02:52:09;20.08;;;14.30;;
3841;SDS011;1936;47.074;15.336;2023-03-02T02:54:16;21.48;;;15.25;;
3841;SDS011;1936;47.074;15.336;2023-03-02T02:56:21;19.88;;;15.00;;
3841;SDS011;1936;47.074;15.336;2023-03-02T02:58:26;18.58;;;13.75;;
3841;SDS011;1936;47.074;15.336;2023-03-02T03:00:34;17.20;;;13.38;;
3841;SDS011;1936;47.074;15.336;2023-03-02T03:02:39;19.75;;;12.80;;
3841;SDS011;1936;47.074;15.336;2023-03-02T03:04:46;19.17;;;12.65;;
3841;SDS011;1936;47.074;15.336;2023-03-02T03:06:51;15.43;;;13.02;;
3841;SDS011;1936;47.074;15.336;2023-03-02T03:08:57;20.17;;;13.48;;
3841;SDS011;1936;47.074;15.336;2023-03-02T03:11:02;19.25;;;13.75;;
3841;SDS011;1936;47.074;15.336;2023-03-02T03:13:06;27.00;;;14.15;;
3841;SDS011;1936;47.074;15.336;2023-03-02T03:15:11;16.50;;;12.30;;
3841;SDS011;1936;47.074;15.336;2023-03-02T03:17:16;17.75;;;13.45;;
3841;SDS011;1936;47.074;15.336;2023-03-02T03:19:20;19.75;;;13.45;;
3841;SDS011;1936;47.074;15.336;2023-03-02T03:21:25;18.35;;;14.35;;
3841;SDS011;1936;47.074;15.336;2023-03-02T03:23:28;18.25;;;14.50;;
3841;SDS011;1936;47.074;15.336;2023-03-02T03:25:32;20.52;;;13.40;;
3841;SDS011;1936;47.074;15.336;2023-03-02T03:27:35;19.50;;;12.80;;
3841;SDS011;1936;47.074;15.336;2023-03-02T03:29:40;17.10;;;12.95;;
3841;SDS011;1936;47.074;15.336;2023-03-02T03:31:48;15.82;;;11.85;;
3841;SDS011;1936;47.074;15.336;2023-03-02T03:33:53;15.27;;;12.35;;
3841;SDS011;1936;47.074;15.336;2023-03-02T03:36:00;18.17;;;13.77;;
3841;SDS011;1936;47.074;15.336;2023-03-02T03:38:04;16.27;;;13.05;;
3841;SDS011;1936;47.074;15.336;2023-03-02T03:40:09;19.35;;;13.90;;
3841;SDS011;1936;47.074;15.336;2023-03-02T03:42:13;17.33;;;13.43;;
3841;SDS011;1936;47.074;15.336;2023-03-02T03:44:16;17.90;;;13.63;;
3841;SDS011;1936;47.074;15.336;2023-03-02T03:46:20;16.20;;;13.05;;
3841;SDS011;1936;47.074;15.336;2023-03-02T03:48:24;19.27;;;14.57;;
3841;SDS011;1936;47.074;15.336;2023-03-02T03:50:28;18.95;;;13.10;;
3841;SDS011;1936;47.074;15.336;2023-03-02T03:52:32;23.60;;;13.90;;
3841;SDS011;1936;47.074;15.336;2023-03-02T03:54:35;18.05;;;12.95;;
3841;SDS011;1936;47.074;15.336;2023-03-02T03:56:41;13.93;;;11.55;;
3841;SDS011;1936;47.074;15.336;2023-03-02T03:58:46;15.10;;;12.32;;
3841;SDS011;1936;47.074;15.336;2023-03-02T04:00:49;17.83;;;12.30;;
3841;SDS011;1936;47.074;15.336;2023-03-02T04:02:53;21.25;;;13.25;;
3841;SDS011;1936;47.074;15.336;2023-03-02T04:04:58;20.83;;;14.18;;
3841;SDS011;1936;47.074;15.336;2023-03-02T04:07:06;15.88;;;12.45;;
3841;SDS011;1936;47.074;15.336;2023-03-02T04:09:10;18.95;;;12.45;;
3841;SDS011;1936;47.074;15.336;2023-03-02T04:11:15;17.63;;;12.45;;
3841;SDS011;1936;47.074;15.336;2023-03-02T04:13:19;16.83;;;12.20;;
3841;SDS011;1936;47.074;15.336;2023-03-02T04:15:22;16.42;;;11.57;;
3841;SDS011;1936;47.074;15.336;2023-03-02T04:17:26;15.90;;;11.52;;
3841;SDS011;1936;47.074;15.336;2023-03-02T04:19:30;16.73;;;11.80;;
3841;SDS011;1936;47.074;15.336;2023-03-02T04:21:37;18.35;;;12.80;;
3841;SDS011;1936;47.074;15.336;2023-03-02T04:23:43;16.98;;;12.20;;
3841;SDS011;1936;47.074;15.336;2023-03-02T04:25:46;18.38;;;13.32;;
3841;SDS011;1936;47.074;15.336;2023-03-02T04:27:50;24.65;;;13.43;;
3841;SDS011;1936;47.074;15.336;2023-03-02T04:29:54;17.58;;;11.60;;
3841;SDS011;1936;47.074;15.336;2023-03-02T04:31:58;22.25;;;12.98;;
3841;SDS011;1936;47.074;15.336;2023-03-02T04:34:01;19.33;;;12.80;;
3841;SDS011;1936;47.074;15.336;2023-03-02T04:36:05;20.08;;;14.27;;
3841;SDS011;1936;47.074;15.336;2023-03-02T04:38:12;17.50;;;13.23;;
3841;SDS011;1936;47.074;15.336;2023-03-02T04:40:16;18.42;;;12.90;;
3841;SDS011;1936;47.074;15.336;2023-03-02T04:42:20;20.70;;;14.80;;
3841;SDS011;1936;47.074;15.336;2023-03-02T04:44:24;19.05;;;13.60;;
3841;SDS011;1936;47.074;15.336;2023-03-02T04:46:27;19.70;;;12.65;;
3841;SDS011;1936;47.074;15.336;2023-03-02T04:48:31;17.05;;;12.48;;
3841;SDS011;1936;47.074;15.336;2023-03-02T04:50:35;19.40;;;13.35;;
3841;SDS011;1936;47.074;15.336;2023-03-02T04:52:38;14.52;;;12.02;;
3841;SDS011;1936;47.074;15.336;2023-03-02T04:54:44;24.45;;;13.70;;
3841;SDS011;1936;47.074;15.336;2023-03-02T04:56:47;19.63;;;13.65;;
3841;SDS011;1936;47.074;15.336;2023-03-02T04:58:52;19.85;;;14.20;;
3841;SDS011;1936;47.074;15.336;2023-03-02T05:00:55;19.00;;;14.43;;
3841;SDS011;1936;47.074;15.336;2023-03-02T05:03:04;19.10;;;14.10;;
3841;SDS011;1936;47.074;15.336;2023-03-02T05:05:09;21.95;;;15.80;;
3841;SDS011;1936;47.074;15.336;2023-03-02T05:07:16;22.15;;;14.70;;
3841;SDS011;1936;47.074;15.336;2023-03-02T05:09:20;24.20;;;14.95;;
3841;SDS011;1936;47.074;15.336;2023-03-02T05:11:29;19.88;;;14.15;;
3841;SDS011;1936;47.074;15.336;2023-03-02T05:13:32;18.00;;;14.07;;
3841;SDS011;1936;47.074;15.336;2023-03-02T05:15:37;20.77;;;13.95;;
3841;SDS011;1936;47.074;15.336;2023-03-02T05:17:42;20.58;;;15.75;;
3841;SDS011;1936;47.074;15.336;2023-03-02T05:19:45;17.88;;;13.80;;
3841;SDS011;1936;47.074;15.336;2023-03-02T05:21:48;19.23;;;13.48;;
3841;SDS011;1936;47.074;15.336;2023-03-02T05:23:52;18.27;;;12.80;;
3841;SDS011;1936;47.074;15.336;2023-03-02T05:25:56;19.65;;;13.30;;
3841;SDS011;1936;47.074;15.336;2023-03-02T05:28:01;17.88;;;12.85;;
3841;SDS011;1936;47.074;15.336;2023-03-02T05:30:06;17.33;;;12.43;;
3841;SDS011;1936;47.074;15.336;2023-03-02T05:32:10;18.67;;;12.63;;
3841;SDS011;1936;47.074;15.336;2023-03-02T05:34:14;19.27;;;14.43;;
3841;SDS011;1936;47.074;15.336;2023-03-02T05:36:18;17.75;;;13.05;;
3841;SDS011;1936;47.074;15.336;2023-03-02T05:38:23;18.63;;;11.93;;
3841;SDS011;1936;47.074;15.336;2023-03-02T05:40:28;20.35;;;13.50;;
3841;SDS011;1936;47.074;15.336;2023-03-02T05:42:31;17.05;;;13.35;;
3841;SDS011;1936;47.074;15.336;2023-03-02T05:44:37;19.50;;;14.10;;
3841;SDS011;1936;47.074;15.336;2023-03-02T05:46:41;18.90;;;13.00;;
3841;SDS011;1936;47.074;15.336;2023-03-02T05:48:44;18.60;;;12.40;;
3841;SDS011;1936;47.074;15.336;2023-03-02T05:50:48;21.63;;;13.63;;
3841;SDS011;1936;47.074;15.336;2023-03-02T05:52:51;17.67;;;11.93;;
3841;SDS011;1936;47.074;15.336;2023-03-02T05:54:55;16.20;;;12.05;;
3841;SDS011;1936;47.074;15.336;2023-03-02T05:56:59;15.13;;;11.05;;
3841;SDS011;1936;47.074;15.336;2023-03-02T05:59:03;17.73;;;12.55;;
3841;SDS011;1936;47.074;15.336;2023-03-02T06:01:09;18.73;;;13.70;;
3841;SDS011;1936;47.074;15.336;2023-03-02T06:03:18;15.95;;;12.35;;
3841;SDS011;1936;47.074;15.336;2023-03-02T06:05:22;16.85;;;11.95;;
3841;SDS011;1936;47.074;15.336;2023-03-02T06:07:25;22.80;;;11.85;;
3841;SDS011;1936;47.074;15.336;2023-03-02T06:09:30;19.63;;;14.35;;
3841;SDS011;1936;47.074;15.336;2023-03-02T06:11:33;15.90;;;12.02;;
3841;SDS011;1936;47.074;15.336;2023-03-02T06:13:37;16.92;;;12.40;;
3841;SDS011;1936;47.074;15.336;2023-03-02T06:15:41;16.13;;;12.55;;
3841;SDS011;1936;47.074;15.336;2023-03-02T06:17:46;19.92;;;13.07;;
3841;SDS011;1936;47.074;15.336;2023-03-02T06:19:49;15.68;;;11.00;;
3841;SDS011;1936;47.074;15.336;2023-03-02T06:21:53;13.93;;;11.20;;
3841;SDS011;1936;47.074;15.336;2023-03-02T06:23:56;19.42;;;12.68;;
3841;SDS011;1936;47.074;15.336;2023-03-02T06:25:59;18.25;;;13.30;;
3841;SDS011;1936;47.074;15.336;2023-03-02T06:28:08;16.33;;;12.93;;
3841;SDS011;1936;47.074;15.336;2023-03-02T06:30:13;18.02;;;10.88;;
3841;SDS011;1936;47.074;15.336;2023-03-02T06:32:18;17.63;;;12.35;;
3841;SDS011;1936;47.074;15.336;2023-03-02T06:34:23;17.33;;;13.27;;
3841;SDS011;1936;47.074;15.336;2023-03-02T06:36:27;15.20;;;11.40;;
3841;SDS011;1936;47.074;15.336;2023-03-02T06:38:31;19.38;;;11.57;;
3841;SDS011;1936;47.074;15.336;2023-03-02T06:40:34;16.20;;;12.40;;
3841;SDS011;1936;47.074;15.336;2023-03-02T06:42:38;17.10;;;12.30;;
3841;SDS011;1936;47.074;15.336;2023-03-02T06:44:42;18.02;;;13.40;;
3841;SDS011;1936;47.074;15.336;2023-03-02T06:46:46;17.80;;;13.15;;
3841;SDS011;1936;47.074;15.336;2023-03-02T06:48:49;20.90;;;12.75;;
3841;SDS011;1936;47.074;15.336;2023-03-02T06:50:54;23.25;;;14.57;;
3841;SDS011;1936;47.074;15.336;2023-03-02T06:52:57;15.20;;;12.43;;
3841;SDS011;1936;47.074;15.336;2023-03-02T06:55:02;17.58;;;13.23;;
3841;SDS011;1936;47.074;15.336;2023-03-02T06:57:05;16.10;;;12.20;;
3841;SDS011;1936;47.074;15.336;2023-03-02T06:59:09;19.63;;;13.85;;
3841;SDS011;1936;47.074;15.336;2023-03-02T07:01:12;17.05;;;12.55;;
3841;SDS011;1936;47.074;15.336;2023-03-02T07:03:16;17.45;;;14.38;;
3841;SDS011;1936;47.074;15.336;2023-03-02T07:05:19;14.07;;;11.63;;
3841;SDS011;1936;47.074;15.336;2023-03-02T07:07:25;13.80;;;11.77;;
3841;SDS011;1936;47.074;15.336;2023-03-02T07:09:28;17.80;;;13.65;;
3841;SDS011;1936;47.074;15.336;2023-03-02T07:11:34;16.40;;;13.40;;
3841;SDS011;1936;47.074;15.336;2023-03-02T07:13:38;17.42;;;13.45;;
3841;SDS011;1936;47.074;15.336;2023-03-02T07:15:42;22.02;;;13.10;;
3841;SDS011;1936;47.074;15.336;2023-03-02T07:17:45;18.13;;;13.48;;
3841;SDS011;1936;47.074;15.336;2023-03-02T07:19:49;15.32;;;12.20;;
3841;SDS011;1936;47.074;15.336;2023-03-02T07:21:52;19.20;;;14.40;;
3841;SDS011;1936;47.074;15.336;2023-03-02T07:23:57;18.27;;;14.10;;
3841;SDS011;1936;47.074;15.336;2023-03-02T07:26:03;17.90;;;12.93;;
3841;SDS011;1936;47.074;15.336;2023-03-02T07:28:09;17.08;;;12.45;;
3841;SDS011;1936;47.074;15.336;2023-03-02T07:30:12;19.30;;;13.98;;
3841;SDS011;1936;47.074;15.336;2023-03-02T07:32:16;17.08;;;13.05;;
3841;SDS011;1936;47.074;15.336;2023-03-02T07:34:20;19.48;;;13.90;;
3841;SDS011;1936;47.074;15.336;2023-03-02T07:36:23;17.00;;;12.57;;
3841;SDS011;1936;47.074;15.336;2023-03-02T07:38:27;18.08;;;12.52;;
3841;SDS011;1936;47.074;15.336;2023-03-02T07:40:32;18.13;;;14.27;;
3841;SDS011;1936;47.074;15.336;2023-03-02T07:42:37;16.77;;;13.80;;
3841;SDS011;1936;47.074;15.336;2023-03-02T07:44:41;15.30;;;12.23;;
3841;SDS011;1936;47.074;15.336;2023-03-02T07:46:44;19.42;;;13.50;;
3841;SDS011;1936;47.074;15.336;2023-03-02T07:48:48;14.48;;;12.82;;
3841;SDS011;1936;47.074;15.336;2023-03-02T07:50:55;15.68;;;12.85;;
3841;SDS011;1936;47.074;15.336;2023-03-02T07:53:04;15.52;;;13.70;;
3841;SDS011;1936;47.074;15.336;2023-03-02T07:55:07;17.67;;;13.50;;
3841;SDS011;1936;47.074;15.336;2023-03-02T07:57:13;16.83;;;12.55;;
3841;SDS011;1936;47.074;15.336;2023-03-02T07:59:16;21.98;;;14.07;;
3841;SDS011;1936;47.074;15.336;2023-03-02T08:01:20;17.58;;;12.88;;
3841;SDS011;1936;47.074;15.336;2023-03-02T08:03:24;18.20;;;14.23;;
3841;SDS011;1936;47.074;15.336;2023-03-02T08:05:28;15.75;;;12.00;;
3841;SDS011;1936;47.074;15.336;2023-03-02T08:07:32;19.65;;;13.30;;
3841;SDS011;1936;47.074;15.336;2023-03-02T08:09:36;16.45;;;12.45;;
3841;SDS011;1936;47.074;15.336;2023-03-02T08:11:40;19.63;;;13.63;;
3841;SDS011;1936;47.074;15.336;2023-03-02T08:13:45;17.23;;;13.90;;
3841;SDS011;1936;47.074;15.336;2023-03-02T08:15:48;15.02;;;12.63;;
3841;SDS011;1936;47.074;15.336;2023-03-02T08:17:52;15.45;;;13.68;;
3841;SDS011;1936;47.074;15.336;2023-03-02T08:19:55;17.33;;;14.35;;
3841;SDS011;1936;47.074;15.336;2023-03-02T08:21:59;17.40;;;13.80;;
3841;SDS011;1936;47.074;15.336;2023-03-02T08:24:03;18.50;;;14.65;;
3841;SDS011;1936;47.074;15.336;2023-03-02T08:26:07;16.02;;;13.90;;
3841;SDS011;1936;47.074;15.336;2023-03-02T08:28:14;21.13;;;15.00;;
3841;SDS011;1936;47.074;15.336;2023-03-02T08:30:19;16.38;;;13.55;;
3841;SDS011;1936;47.074;15.336;2023-03-02T08:32:23;20.17;;;11.88;;
3841;SDS011;1936;47.074;15.336;2023-03-02T08:34:26;19.60;;;13.98;;
3841;SDS011;1936;47.074;15.336;2023-03-02T08:36:30;19.15;;;12.65;;
3841;SDS011;1936;47.074;15.336;2023-03-02T08:38:34;18.85;;;12.38;;
3841;SDS011;1936;47.074;15.336;2023-03-02T08:40:37;18.50;;;13.90;;
3841;SDS011;1936;47.074;15.336;2023-03-02T08:42:41;17.38;;;13.90;;
3841;SDS011;1936;47.074;15.336;2023-03-02T08:44:44;14.48;;;11.68;;
3841;SDS011;1936;47.074;15.336;2023-03-02T08:46:49;14.55;;;12.30;;
3841;SDS011;1936;47.074;15.336;2023-03-02T08:48:53;17.60;;;12.98;;
3841;SDS011;1936;47.074;15.336;2023-03-02T08:50:57;15.88;;;11.60;;
3841;SDS011;1936;47.074;15.336;2023-03-02T08:53:02;16.30;;;13.32;;
3841;SDS011;1936;47.074;15.336;2023-03-02T08:55:06;14.50;;;11.93;;
3841;SDS011;1936;47.074;15.336;2023-03-02T08:57:11;16.58;;;12.60;;
3841;SDS011;1936;47.074;15.336;2023-03-02T08:59:14;15.20;;;12.15;;
3841;SDS011;1936;47.074;15.336;2023-03-02T09:01:19;11.98;;;10.38;;
3841;SDS011;1936;47.074;15.336;2023-03-02T09:03:26;15.48;;;11.15;;
3841;SDS011;1936;47.074;15.336;2023-03-02T09:05:29;16.35;;;11.38;;
3841;SDS011;1936;47.074;15.336;2023-03-02T09:07:33;15.20;;;11.05;;
3841;SDS011;1936;47.074;15.336;2023-03-02T09:09:36;12.30;;;10.43;;
3841;SDS011;1936;47.074;15.336;2023-03-02T09:11:40;12.77;;;10.73;;
3841;SDS011;1936;47.074;15.336;2023-03-02T09:13:43;19.27;;;11.63;;
3841;SDS011;1936;47.074;15.336;2023-03-02T09:15:47;14.63;;;11.35;;
3841;SDS011;1936;47.074;15.336;2023-03-02T09:17:50;16.03;;;12.30;;
3841;SDS011;1936;47.074;15.336;2023-03-02T09:19:55;13.18;;;10.63;;
3841;SDS011;1936;47.074;15.336;2023-03-02T09:22:00;14.50;;;12.38;;
3841;SDS011;1936;47.074;15.336;2023-03-02T09:24:04;13.40;;;11.40;;
3841;SDS011;1936;47.074;15.336;2023-03-02T09:26:08;13.45;;;11.32;;
3841;SDS011;1936;47.074;15.336;2023-03-02T09:28:15;15.73;;;12.35;;
3841;SDS011;1936;47.074;15.336;2023-03-02T09:30:19;15.87;;;12.43;;
3841;SDS011;1936;47.074;15.336;2023-03-02T09:32:22;18.30;;;11.57;;
3841;SDS011;1936;47.074;15.336;2023-03-02T09:34:30;15.27;;;11.07;;
3841;SDS011;1936;47.074;15.336;2023-03-02T09:36:35;13.70;;;11.65;;
3841;SDS011;1936;47.074;15.336;2023-03-02T09:38:39;16.92;;;11.05;;
3841;SDS011;1936;47.074;15.336;2023-03-02T09:40:49;15.32;;;10.80;;
3841;SDS011;1936;47.074;15.336;2023-03-02T09:43:17;16.08;;;11.20;;
3841;SDS011;1936;47.074;15.336;2023-03-02T09:47:59;13.25;;;10.80;;
3841;SDS011;1936;47.074;15.336;2023-03-02T09:50:13;13.20;;;10.73;;
3841;SDS011;1936;47.074;15.336;2023-03-02T09:52:29;12.52;;;10.13;;
3841;SDS011;1936;47.074;15.336;2023-03-02T09:54:36;12.77;;;9.53;;
3841;SDS011;1936;47.074;15.336;2023-03-02T09:56:42;14.13;;;9.50;;
3841;SDS011;1936;47.074;15.336;2023-03-02T09:58:48;14.53;;;10.33;;
3841;SDS011;1936;47.074;15.336;2023-03-02T10:00:57;13.63;;;10.60;;
3841;SDS011;1936;47.074;15.336;2023-03-02T10:03:04;16.83;;;11.17;;
3841;SDS011;1936;47.074;15.336;2023-03-02T10:05:19;13.90;;;9.90;;
3841;SDS011;1936;47.074;15.336;2023-03-02T10:07:25;9.30;;;8.32;;
3841;SDS011;1936;47.074;15.336;2023-03-02T10:09:32;11.47;;;8.97;;
3841;SDS011;1936;47.074;15.336;2023-03-02T10:11:38;15.73;;;10.30;;
3841;SDS011;1936;47.074;15.336;2023-03-02T10:13:52;14.18;;;10.63;;
3841;SDS011;1936;47.074;15.336;2023-03-02T10:16:08;12.98;;;9.38;;
3841;SDS011;1936;47.074;15.336;2023-03-02T10:18:18;15.23;;;10.00;;
3841;SDS011;1936;47.074;15.336;2023-03-02T10:20:26;12.03;;;9.23;;
3841;SDS011;1936;47.074;15.336;2023-03-02T10:22:36;12.13;;;9.15;;
3841;SDS011;1936;47.074;15.336;2023-03-02T10:24:46;13.20;;;9.63;;
3841;SDS011;1936;47.074;15.336;2023-03-02T10:26:56;11.88;;;9.85;;
3841;SDS011;1936;47.074;15.336;2023-03-02T10:29:05;11.75;;;9.70;;
3841;SDS011;1936;47.074;15.336;2023-03-02T10:31:26;10.43;;;8.70;;
3841;SDS011;1936;47.074;15.336;2023-03-02T10:33:31;12.30;;;10.33;;
3841;SDS011;1936;47.074;15.336;2023-03-02T10:35:36;11.80;;;10.03;;
3841;SDS011;1936;47.074;15.336;2023-03-02T10:37:43;12.93;;;9.00;;
3841;SDS011;1936;47.074;15.336;2023-03-02T10:39:48;16.55;;;10.65;;
3841;SDS011;1936;47.074;15.336;2023-03-02T10:41:52;10.45;;;9.35;;
3841;SDS011;1936;47.074;15.336;2023-03-02T10:44:00;12.60;;;9.93;;
3841;SDS011;1936;47.074;15.336;2023-03-02T10:46:08;10.50;;;8.85;;
3841;SDS011;1936;47.074;15.336;2023-03-02T10:48:12;12.15;;;9.45;;
3841;SDS011;1936;47.074;15.336;2023-03-02T10:50:19;11.65;;;8.32;;
3841;SDS011;1936;47.074;15.336;2023-03-02T10:52:24;12.70;;;9.48;;
3841;SDS011;1936;47.074;15.336;2023-03-02T10:54:30;11.55;;;10.15;;
3841;SDS011;1936;47.074;15.336;2023-03-02T10:56:40;13.40;;;9.85;;
3841;SDS011;1936;47.074;15.336;2023-03-02T10:58:45;11.68;;;9.00;;
3841;SDS011;1936;47.074;15.336;2023-03-02T11:00:54;10.90;;;8.60;;
3841;SDS011;1936;47.074;15.336;2023-03-02T11:02:59;23.20;;;10.57;;
3841;SDS011;1936;47.074;15.336;2023-03-02T11:05:47;16.52;;;9.30;;
3841;SDS011;1936;47.074;15.336;2023-03-02T11:08:39;12.75;;;9.00;;
3841;SDS011;1936;47.074;15.336;2023-03-02T11:11:19;14.95;;;9.20;;
3841;SDS011;1936;47.074;15.336;2023-03-02T11:13:43;11.90;;;8.13;;
3841;SDS011;1936;47.074;15.336;2023-03-02T11:16:45;12.13;;;9.73;;
3841;SDS011;1936;47.074;15.336;2023-03-02T11:18:50;18.58;;;10.05;;
3841;SDS011;1936;47.074;15.336;2023-03-02T11:20:56;13.10;;;9.30;;
3841;SDS011;1936;47.074;15.336;2023-03-02T11:23:12;11.18;;;8.90;;
3841;SDS011;1936;47.074;15.336;2023-03-02T11:25:22;13.80;;;9.00;;
3841;SDS011;1936;47.074;15.336;2023-03-02T11:27:28;13.02;;;8.90;;
3841;SDS011;1936;47.074;15.336;2023-03-02T11:29:36;11.43;;;7.43;;
3841;SDS011;1936;47.074;15.336;2023-03-02T11:31:44;9.23;;;8.27;;
3841;SDS011;1936;47.074;15.336;2023-03-02T11:33:56;10.80;;;9.30;;
3841;SDS011;1936;47.074;15.336;2023-03-02T11:36:18;10.20;;;8.73;;
3841;SDS011;1936;47.074;15.336;2023-03-02T11:38:27;10.60;;;8.67;;
3841;SDS011;1936;47.074;15.336;2023-03-02T11:40:35;15.40;;;9.53;;
3841;SDS011;1936;47.074;15.336;2023-03-02T11:42:47;12.40;;;9.73;;
3841;SDS011;1936;47.074;15.336;2023-03-02T11:44:52;14.70;;;9.90;;
3841;SDS011;1936;47.074;15.336;2023-03-02T11:46:58;10.40;;;8.87;;
3841;SDS011;1936;47.074;15.336;2023-03-02T11:49:03;11.97;;;8.37;;
3841;SDS011;1936;47.074;15.336;2023-03-02T11:51:13;10.97;;;7.87;;
3841;SDS011;1936;47.074;15.336;2023-03-02T11:53:19;12.00;;;8.10;;
3841;SDS011;1936;47.074;15.336;2023-03-02T11:55:25;13.13;;;8.43;;
3841;SDS011;1936;47.074;15.336;2023-03-02T11:57:30;10.03;;;8.67;;
3841;SDS011;1936;47.074;15.336;2023-03-02T11:59:40;12.47;;;9.90;;
3841;SDS011;1936;47.074;15.336;2023-03-02T12:01:46;13.30;;;8.97;;
3841;SDS011;1936;47.074;15.336;2023-03-02T12:03:53;10.70;;;8.77;;
3841;SDS011;1936;47.074;15.336;2023-03-02T12:06:24;10.83;;;9.10;;
3841;SDS011;1936;47.074;15.336;2023-03-02T12:08:30;9.95;;;8.10;;
3841;SDS011;1936;47.074;15.336;2023-03-02T12:10:37;10.80;;;8.47;;
3841;SDS011;1936;47.074;15.336;2023-03-02T12:12:45;9.48;;;7.57;;
3841;SDS011;1936;47.074;15.336;2023-03-02T12:14:59;10.83;;;9.53;;
3841;SDS011;1936;47.074;15.336;2023-03-02T12:17:05;11.53;;;8.47;;
3841;SDS011;1936;47.074;15.336;2023-03-02T12:19:23;11.70;;;9.60;;
3841;SDS011;1936;47.074;15.336;2023-03-02T12:21:37;11.77;;;8.97;;
3841;SDS011;1936;47.074;15.336;2023-03-02T12:23:56;11.67;;;9.20;;
3841;SDS011;1936;47.074;15.336;2023-03-02T12:26:03;12.43;;;9.50;;
3841;SDS011;1936;47.074;15.336;2023-03-02T12:28:24;12.30;;;9.37;;
3841;SDS011;1936;47.074;15.336;2023-03-02T12:30:29;10.17;;;9.10;;
3841;SDS011;1936;47.074;15.336;2023-03-02T12:32:34;11.67;;;9.60;;
3841;SDS011;1936;47.074;15.336;2023-03-02T12:34:38;12.60;;;9.70;;